Weather at Litochoro [CLOSED]

Public forecast

Using degrees Celsius for public forecast. Weather courtesy of forecast.io.

Closest aviation weather report (METAR) to Litochoro

Closest report is Larisa Air Base, 28.5 nm (52.8 km) S. Retrieved 2022/01/17 16:50 UTC (26 minutes ago):

LGLR 171650Z 00000KT 9999 SCT080 05/01 Q1019 BLU

Closest aviation forecast (TAF) to Litochoro

Closest forecast is Thessaloniki Macedonia International Airport, 31.1 nm (57.6 km) NE. Retrieved 2022/01/17 12:12 UTC (5 hours ago):

TAF LGTS 171100Z 1712/1812 34012KT 9999 FEW030 TEMPO 1714/1812 34015G30KT PROB40 TEMPO 1802/1810 34025G35KT